.
WxDataArchive / Data Records for 2014-04-26
2014-04-25 April 2014 2014-04-27

Data Records for Saturday, 26 April 2014

Time	Temp	Chill	HIndex	Humid	Dewpt	 Wind 	HiWind	WindDir	Rain 	Barom
-----	----	-----	------	-----	-----	------	------	-------	-----	-----
00:00	50.1	50.1	50.1	68	40.0	0	0	---	0.00	29.821 
00:05	49.8	49.8	49.8	69	40.0	0	0	---	0.00	29.821 
00:10	49.4	49.4	49.4	69	39.7	0	0	---	0.00	29.821 
00:15	49.1	49.1	49.1	70	39.7	0	0	---	0.00	29.821 
00:20	48.6	48.6	48.6	71	39.6	0	0	---	0.00	29.821 
00:25	48.3	48.3	48.3	71	39.3	0	0	---	0.00	29.821 
00:30	47.9	47.9	47.9	72	39.3	0	0	---	0.00	29.820 
00:35	47.6	47.6	47.6	72	39.0	0	0	---	0.00	29.820 
00:40	47.3	47.3	47.3	73	39.1	0	0	---	0.00	29.820 
00:45	47.1	47.1	47.1	74	39.2	0	0	---	0.00	29.817 
00:50	46.8	46.8	46.8	74	39.0	0	0	---	0.00	29.817 
00:55	46.7	46.7	46.7	75	39.2	0	0	---	0.00	29.817 
01:00	46.5	46.5	46.5	75	39.0	0	0	---	0.00	29.821 
01:05	46.4	46.4	46.4	76	39.3	0	0	---	0.00	29.821 
01:10	46.2	46.2	46.2	76	39.1	0	0	---	0.00	29.821 
01:15	46.0	46.0	46.0	77	39.2	0	1	315	0.00	29.821 
01:20	45.8	45.8	45.8	77	39.0	0	0	---	0.00	29.821 
01:25	45.8	45.8	45.8	78	39.3	0	0	---	0.00	29.821 
01:30	46.0	46.0	46.0	78	39.5	0	0	---	0.00	29.823 
01:35	46.1	46.1	46.1	78	39.6	0	0	---	0.00	29.823 
01:40	46.2	46.2	46.2	79	40.1	0	0	---	0.00	29.823 
01:45	46.2	46.2	46.2	78	39.7	0	0	---	0.00	29.819 
01:50	46.2	46.2	46.2	78	39.7	0	0	---	0.00	29.819 
01:55	46.2	46.2	46.2	78	39.7	0	0	---	0.00	29.819 
02:00	46.2	46.2	46.2	78	39.7	0	0	---	0.00	29.813 
02:05	46.2	46.2	46.2	78	39.7	0	0	---	0.00	29.813 
02:10	46.2	46.2	46.2	77	39.4	0	0	---	0.00	29.813 
02:15	46.2	46.2	46.2	77	39.4	0	0	---	0.00	29.802 
02:20	46.1	46.1	46.1	77	39.3	0	0	---	0.00	29.802 
02:25	46.0	46.0	46.0	77	39.2	0	0	---	0.00	29.802 
02:30	45.8	45.8	45.8	77	39.0	0	0	---	0.00	29.801 
02:35	46.0	46.0	46.0	78	39.5	0	0	---	0.00	29.801 
02:40	46.0	46.0	46.0	78	39.5	0	0	---	0.00	29.801 
02:45	46.2	46.2	46.2	78	39.7	0	0	---	0.00	29.800 
02:50	46.5	46.5	46.5	78	40.0	0	0	---	0.00	29.800 
02:55	47.1	47.1	47.1	76	39.9	0	1	315	0.00	29.800 
03:00	47.9	47.9	47.9	75	40.4	0	0	---	0.00	29.799 
03:05	48.6	48.6	48.6	73	40.3	0	1	315	0.00	29.799 
03:10	49.5	49.5	49.5	70	40.1	0	1	315	0.00	29.799 
03:15	50.1	50.1	50.1	69	40.3	0	1	315	0.00	29.790 
03:20	50.5	50.5	50.5	66	39.6	0	2	315	0.00	29.790 
03:25	51.0	51.0	51.0	65	39.7	0	1	315	0.00	29.790 
03:30	51.4	51.4	51.4	64	39.6	0	2	315	0.00	29.793 
03:35	51.7	51.7	51.7	63	39.5	0	1	315	0.00	29.793 
03:40	51.9	51.9	51.9	62	39.3	0	2	315	0.00	29.793 
03:45	52.0	52.0	52.0	62	39.4	0	1	315	0.00	29.792 
03:50	52.2	52.2	52.2	61	39.2	0	2	292	0.00	29.792 
03:55	52.3	52.3	52.3	61	39.3	0	2	292	0.00	29.792 
04:00	52.5	52.5	52.5	60	39.0	0	1	292	0.00	29.789 
04:05	52.5	52.5	52.5	61	39.4	0	1	292	0.00	29.789 
04:10	52.3	52.3	52.3	61	39.3	0	1	292	0.00	29.789 
04:15	52.3	52.3	52.3	61	39.3	0	1	292	0.00	29.790 
04:20	52.2	52.2	52.2	61	39.2	0	1	292	0.00	29.790 
04:25	52.2	52.2	52.2	61	39.2	0	1	292	0.00	29.790 
04:30	52.3	52.3	52.3	61	39.3	0	1	292	0.00	29.801 
04:35	52.5	52.5	52.5	61	39.4	0	1	292	0.00	29.801 
04:40	52.6	52.6	52.6	61	39.5	0	1	292	0.00	29.801 
04:45	52.6	52.6	52.6	60	39.1	0	1	292	0.00	29.794 
04:50	52.6	52.6	52.6	60	39.1	0	1	292	0.00	29.794 
04:55	52.6	52.6	52.6	60	39.1	0	1	292	0.00	29.794 
05:00	52.5	52.5	52.5	61	39.4	0	1	292	0.00	29.807 
05:05	52.3	52.3	52.3	61	39.3	0	1	292	0.00	29.807 
05:10	52.2	52.2	52.2	62	39.6	0	1	292	0.00	29.807 
05:15	52.2	52.2	52.2	62	39.6	0	1	292	0.00	29.817 
05:20	52.5	52.5	52.5	62	39.9	0	2	292	0.00	29.817 
05:25	52.8	52.8	52.8	60	39.3	0	1	292	0.00	29.817 
05:30	53.1	53.1	53.1	59	39.2	0	1	292	0.00	29.806 
05:35	53.2	53.2	53.2	58	38.8	0	1	292	0.00	29.806 
05:40	53.3	53.3	53.3	58	38.9	0	1	292	0.00	29.806 
05:45	53.6	53.6	53.6	57	38.7	0	1	292	0.00	29.807 
05:50	53.6	53.6	53.6	58	39.2	0	1	292	0.00	29.807 
05:55	53.8	53.8	53.8	57	38.9	0	1	292	0.00	29.807 
06:00	53.9	53.9	53.9	56	38.6	0	1	292	0.00	29.809 
06:05	54.1	54.1	54.1	55	38.3	0	1	292	0.00	29.809 
06:10	54.2	54.2	54.2	54	37.9	0	1	292	0.00	29.809 
06:15	54.5	54.5	54.5	54	38.2	0	1	292	0.00	29.814 
06:20	54.7	54.7	54.7	55	38.9	0	1	292	0.00	29.814 
06:25	54.7	54.7	54.7	55	38.9	0	1	292	0.00	29.814 
06:30	54.7	54.7	54.7	55	38.9	0	2	292	0.00	29.805 
06:35	54.8	54.8	54.8	55	38.9	0	2	292	0.00	29.805 
06:40	54.8	54.8	54.8	56	39.4	1	3	270	0.00	29.805 
06:45	54.8	54.8	54.8	57	39.9	1	4	270	0.00	29.807 
06:50	55.1	55.1	55.1	58	40.6	1	5	270	0.00	29.807 
06:55	55.1	55.1	55.1	59	41.0	0	2	270	0.00	29.807 
07:00	55.0	55.0	55.0	60	41.4	0	2	270	0.00	29.804 
07:05	55.0	55.0	55.0	61	41.8	0	2	270	0.00	29.804 
07:10	55.0	55.0	55.0	61	41.8	0	2	270	0.00	29.804 
07:15	55.1	55.1	55.1	61	41.9	0	2	270	0.00	29.818 
07:20	55.1	55.1	55.1	61	41.9	1	5	248	0.00	29.818 
07:25	55.3	55.3	55.3	60	41.7	1	3	248	0.00	29.818 
07:30	55.3	55.3	55.3	60	41.7	1	4	248	0.00	29.820 
07:35	55.3	55.3	55.3	59	41.2	1	3	248	0.00	29.820 
07:40	55.1	55.1	55.1	59	41.0	0	2	248	0.00	29.820 
07:45	55.1	55.1	55.1	59	41.0	0	2	248	0.00	29.822 
07:50	55.3	55.3	55.3	58	40.8	1	2	248	0.00	29.822 
07:55	55.6	55.6	55.6	58	41.1	0	2	248	0.00	29.822 
08:00	55.6	55.6	55.6	58	41.1	1	2	248	0.00	29.831 
08:05	55.9	55.9	55.9	58	41.3	1	2	248	0.00	29.831 
08:10	56.3	56.3	56.3	57	41.3	1	3	248	0.00	29.831 
08:15	56.6	56.6	56.6	56	41.1	2	4	248	0.00	29.842 
08:20	56.9	56.9	56.9	55	40.9	2	5	270	0.00	29.842 
08:25	57.0	57.0	57.0	55	41.0	1	5	338	0.00	29.842 
08:30	56.6	56.6	56.6	53	39.7	2	6	338	0.00	29.858 
08:35	56.0	56.0	56.0	53	39.1	2	7	0	0.00	29.858 
08:40	55.6	55.6	55.6	55	39.7	2	4	292	0.00	29.858 
08:45	55.1	55.1	55.1	55	39.2	2	4	0	0.00	29.872 
08:50	54.5	54.5	54.5	54	38.2	2	6	338	0.00	29.872 
08:55	54.4	54.4	54.4	54	38.1	1	3	292	0.00	29.872 
09:00	54.5	54.5	54.5	55	38.7	1	3	315	0.00	29.877 
09:05	54.4	54.4	54.4	56	39.0	1	5	292	0.00	29.877 
09:10	54.5	54.5	54.5	53	37.7	1	3	292	0.00	29.877 
09:15	54.4	54.4	54.4	53	37.6	2	5	338	0.00	29.881 
09:20	53.9	53.9	53.9	53	37.2	1	5	338	0.00	29.881 
09:25	54.1	54.1	54.1	53	37.4	1	4	315	0.00	29.881 
09:30	54.4	54.4	54.4	51	36.7	2	6	270	0.00	29.888 
09:35	54.4	54.4	54.4	50	36.2	2	5	292	0.00	29.888 
09:40	54.7	54.7	54.7	50	36.4	2	6	292	0.00	29.888 
09:45	54.4	54.4	54.4	50	36.2	2	7	338	0.00	29.895 
09:50	54.1	54.1	54.1	50	35.9	2	5	338	0.00	29.895 
09:55	54.1	54.1	54.1	51	36.4	2	6	338	0.00	29.895 
10:00	54.4	54.4	54.4	51	36.7	2	6	315	0.00	29.894 
10:05	55.0	55.0	55.0	51	37.2	1	5	0	0.00	29.894 
10:10	55.3	55.3	55.3	51	37.5	2	5	338	0.00	29.894 
10:15	55.4	55.4	55.4	50	37.1	2	6	338	0.00	29.892 
10:20	55.9	55.9	55.9	49	37.0	1	5	338	0.00	29.892 
10:25	56.2	56.2	56.2	50	37.8	1	5	270	0.00	29.892 
10:30	56.5	56.5	56.5	49	37.6	2	5	315	0.00	29.890 
10:35	56.6	56.6	56.6	48	37.1	1	4	315	0.00	29.890 
10:40	56.7	56.7	56.7	46	36.2	2	4	315	0.00	29.890 
10:45	57.2	57.2	57.2	46	36.6	1	4	315	0.00	29.902 
10:50	57.5	57.5	57.5	46	36.9	2	6	292	0.00	29.902 
10:55	57.6	57.6	57.6	46	37.0	2	6	292	0.00	29.902 
11:00	57.3	57.3	57.3	45	36.1	2	5	315	0.00	29.902 
11:05	57.8	57.8	57.8	46	37.2	2	5	0	0.00	29.902 
11:10	58.0	58.0	58.0	44	36.2	4	9	338	0.00	29.902 
11:15	58.0	58.0	58.0	45	36.8	3	6	315	0.00	29.902 
11:20	58.3	58.3	58.3	44	36.5	2	7	315	0.00	29.902 
11:25	58.4	58.4	58.4	43	36.0	2	6	315	0.00	29.902 
11:30	58.6	58.6	58.6	44	36.8	3	5	315	0.00	29.906 
11:35	58.7	58.7	58.7	45	37.4	2	4	315	0.00	29.906 
11:40	59.0	59.0	59.0	44	37.1	2	5	315	0.00	29.906 
11:45	59.2	59.2	59.2	46	38.4	2	5	315	0.00	29.906 
11:50	59.6	59.6	59.6	46	38.8	2	6	292	0.00	29.906 
11:55	59.8	59.8	59.8	44	37.8	2	5	292	0.00	29.906 
12:00	59.8	59.8	59.8	44	37.8	2	7	0	0.00	29.902 
12:05	60.2	60.2	60.2	43	37.6	2	5	292	0.00	29.902 
12:10	60.4	60.4	60.4	44	38.4	2	5	338	0.00	29.902 
12:15	60.5	60.5	60.5	44	38.5	2	5	338	0.00	29.906 
12:20	60.5	60.5	60.5	43	37.9	2	6	338	0.00	29.906 
12:25	60.5	60.5	60.5	43	37.9	2	6	315	0.00	29.906 
12:30	60.5	60.5	60.5	42	37.3	2	5	292	0.00	29.904 
12:35	60.7	60.7	60.7	42	37.5	2	6	338	0.00	29.904 
12:40	60.9	60.9	60.9	43	38.3	3	6	292	0.00	29.904 
12:45	61.0	61.0	61.0	41	37.1	2	5	315	0.00	29.901 
12:50	61.3	61.3	61.3	45	39.8	2	7	315	0.00	29.901 
12:55	62.0	62.0	62.0	43	39.2	2	5	292	0.00	29.901 
13:00	62.1	62.1	62.1	44	39.9	2	6	315	0.00	29.901 
13:05	62.3	62.3	62.3	39	37.0	3	7	292	0.00	29.901 
13:10	62.4	62.4	62.4	42	39.0	2	6	315	0.00	29.901 
13:15	62.3	62.3	62.3	40	37.7	2	5	315	0.00	29.903 
13:20	62.1	62.1	62.1	39	36.8	3	6	315	0.00	29.903 
13:25	62.4	62.4	62.4	39	37.1	2	5	270	0.00	29.903 
13:30	62.4	62.4	62.4	40	37.8	2	6	292	0.00	29.903 
13:35	62.6	62.6	62.6	39	37.3	2	5	292	0.00	29.903 
13:40	62.6	62.6	62.6	39	37.3	2	4	292	0.00	29.903 
13:45	62.6	62.6	62.6	38	36.6	3	9	338	0.00	29.899 
13:50	62.9	62.9	62.9	40	38.2	2	5	315	0.00	29.899 
13:55	63.2	63.2	63.2	38	37.2	2	4	292	0.00	29.899 
14:00	63.5	63.5	63.5	37	36.8	3	6	270	0.00	29.903 
14:05	63.5	63.5	63.5	38	37.4	2	5	338	0.00	29.903 
14:10	63.7	63.7	63.7	37	36.9	2	6	270	0.00	29.903 
14:15	63.7	63.7	63.7	35	35.5	3	9	292	0.00	29.902 
14:20	63.9	63.9	63.9	37	37.1	2	5	270	0.00	29.902 
14:25	64.0	64.0	64.0	33	34.3	3	6	315	0.00	29.902 
14:30	63.9	63.9	63.9	36	36.4	3	6	315	0.00	29.902 
14:35	64.0	64.0	64.0	35	35.8	3	6	338	0.00	29.902 
14:40	64.5	64.5	64.5	33	34.8	2	7	315	0.00	29.902 
14:45	64.3	64.3	64.3	33	34.6	3	8	292	0.00	29.903 
14:50	64.0	64.0	64.0	33	34.3	3	6	315	0.00	29.903 
14:55	63.5	63.5	63.5	34	34.6	2	4	315	0.00	29.903 
15:00	63.5	63.5	63.5	33	33.9	2	4	315	0.00	29.911 
15:05	63.4	63.4	63.4	34	34.5	3	6	270	0.00	29.911 
15:10	63.5	63.5	63.5	35	35.4	3	4	270	0.00	29.911 
15:15	63.9	63.9	63.9	34	35.0	3	5	270	0.00	29.913 
15:20	64.5	64.5	64.5	33	34.8	2	4	315	0.00	29.913 
15:25	64.5	64.5	64.5	33	34.8	3	6	270	0.00	29.913 
15:30	64.3	64.3	64.3	31	33.0	3	6	270	0.00	29.916 
15:35	63.7	63.7	63.7	31	32.5	3	7	338	0.00	29.916 
15:40	64.2	64.2	64.2	34	35.2	3	7	315	0.00	29.916 
15:45	64.2	64.2	64.2	31	32.9	3	13	338	0.00	29.916 
15:50	63.5	63.5	63.5	32	33.1	3	6	0	0.00	29.916 
15:55	64.0	64.0	64.0	33	34.3	2	5	338	0.00	29.916 
16:00	63.5	63.5	63.5	33	33.9	2	5	315	0.00	29.917 
16:05	64.2	64.2	64.2	32	33.7	2	7	338	0.00	29.917 
16:10	64.5	64.5	64.5	31	33.2	2	6	270	0.00	29.917 
16:15	64.2	64.2	64.2	33	34.5	3	7	315	0.00	29.917 
16:20	64.2	64.2	64.2	33	34.5	1	5	315	0.00	29.917 
16:25	65.0	65.0	65.0	31	33.6	2	6	0	0.00	29.917 
16:30	64.7	64.7	64.7	31	33.4	2	4	292	0.00	29.914 
16:35	64.3	64.3	64.3	30	32.2	1	4	338	0.00	29.914 
16:40	64.2	64.2	64.2	30	32.1	2	7	315	0.00	29.914 
16:45	64.2	64.2	64.2	31	32.9	2	6	338	0.00	29.918 
16:50	63.9	63.9	63.9	29	31.0	2	6	338	0.00	29.918 
16:55	63.5	63.5	63.5	29	30.7	1	4	315	0.00	29.918 
17:00	63.7	63.7	63.7	30	31.7	1	4	338	0.00	29.919 
17:05	64.0	64.0	64.0	31	32.8	2	4	338	0.00	29.919 
17:10	64.2	64.2	64.2	28	30.4	2	7	338	0.00	29.919 
17:15	63.5	63.5	63.5	28	29.8	2	5	338	0.00	29.922 
17:20	63.5	63.5	63.5	28	29.8	2	5	338	0.00	29.922 
17:25	63.7	63.7	63.7	28	30.0	2	6	338	0.00	29.922 
17:30	63.9	63.9	63.9	26	28.3	2	6	338	0.00	29.925 
17:35	64.0	64.0	64.0	26	28.4	2	5	315	0.00	29.925 
17:40	63.9	63.9	63.9	26	28.3	1	4	338	0.00	29.925 
17:45	63.5	63.5	63.5	25	27.1	2	7	315	0.00	29.926 
17:50	63.5	63.5	63.5	25	27.1	2	5	338	0.00	29.926 
17:55	64.0	64.0	64.0	26	28.4	2	5	248	0.00	29.926 
18:00	64.2	64.2	64.2	25	27.6	1	4	248	0.00	29.926 
18:05	64.2	64.2	64.2	25	27.6	2	3	248	0.00	29.926 
18:10	64.3	64.3	64.3	27	29.6	1	3	292	0.00	29.926 
18:15	64.5	64.5	64.5	27	29.8	1	4	292	0.00	29.927 
18:20	64.3	64.3	64.3	26	28.7	2	4	270	0.00	29.927 
18:25	63.9	63.9	63.9	26	28.3	1	4	315	0.00	29.927 
18:30	63.5	63.5	63.5	26	28.0	1	3	0	0.00	29.931 
18:35	63.4	63.4	63.4	26	27.9	1	4	0	0.00	29.931 
18:40	63.2	63.2	63.2	26	27.7	1	3	315	0.00	29.931 
18:45	63.2	63.2	63.2	27	28.7	0	2	315	0.00	29.929 
18:50	63.2	63.2	63.2	25	26.8	1	3	315	0.00	29.929 
18:55	63.2	63.2	63.2	26	27.7	1	3	315	0.00	29.929 
19:00	63.1	63.1	63.1	25	26.7	1	2	315	0.00	29.932 
19:05	62.7	62.7	62.7	25	26.4	1	3	315	0.00	29.932 
19:10	62.4	62.4	62.4	25	26.1	1	3	315	0.00	29.932 
19:15	62.3	62.3	62.3	27	27.9	0	2	315	0.00	29.933 
19:20	62.0	62.0	62.0	27	27.6	0	2	315	0.00	29.933 
19:25	61.6	61.6	61.6	27	27.3	1	4	315	0.00	29.933 
19:30	61.6	61.6	61.6	28	28.2	0	2	315	0.00	29.932 
19:35	61.5	61.5	61.5	27	27.2	1	4	315	0.00	29.932 
19:40	61.3	61.3	61.3	28	27.9	0	2	315	0.00	29.932 
19:45	61.2	61.2	61.2	27	27.0	0	1	315	0.00	29.931 
19:50	60.9	60.9	60.9	27	26.7	0	1	315	0.00	29.931 
19:55	60.5	60.5	60.5	28	27.2	0	2	315	0.00	29.931 
20:00	60.4	60.4	60.4	28	27.1	1	3	315	0.00	29.930 
20:05	60.1	60.1	60.1	29	27.7	0	1	315	0.00	29.930 
20:10	59.8	59.8	59.8	29	27.5	0	1	315	0.00	29.930 
20:15	59.5	59.5	59.5	29	27.2	0	1	315	0.00	29.931 
20:20	59.2	59.2	59.2	29	27.0	0	1	315	0.00	29.931 
20:25	58.7	58.7	58.7	29	26.5	0	0	---	0.00	29.931 
20:30	58.4	58.4	58.4	30	27.1	0	1	315	0.00	29.934 
20:35	58.1	58.1	58.1	29	26.0	0	1	315	0.00	29.934 
20:40	57.6	57.6	57.6	30	26.4	0	0	---	0.00	29.934 
20:45	57.3	57.3	57.3	31	26.9	0	0	---	0.00	29.940 
20:50	56.9	56.9	56.9	32	27.4	0	0	---	0.00	29.940 
20:55	56.5	56.5	56.5	34	28.5	0	0	---	0.00	29.940 
21:00	56.0	56.0	56.0	36	29.4	0	1	315	0.00	29.951 
21:05	55.9	55.9	55.9	38	30.7	0	1	315	0.00	29.951 
21:10	55.7	55.7	55.7	39	31.1	0	1	315	0.00	29.951 
21:15	55.6	55.6	55.6	40	31.7	0	1	315	0.00	29.961 
21:20	55.4	55.4	55.4	41	32.1	1	5	90	0.00	29.961 
21:25	55.6	55.6	55.6	41	32.3	1	4	90	0.00	29.961 
21:30	55.6	55.6	55.6	43	33.5	1	4	90	0.00	29.966 
21:35	55.4	55.4	55.4	43	33.3	1	4	90	0.00	29.966 
21:40	55.3	55.3	55.3	44	33.8	1	4	112	0.00	29.966 
21:45	55.1	55.1	55.1	44	33.6	1	5	112	0.00	29.969 
21:50	54.8	54.8	54.8	45	33.9	1	4	112	0.00	29.969 
21:55	54.7	54.7	54.7	46	34.3	2	5	112	0.00	29.969 
22:00	54.5	54.5	54.5	46	34.1	2	7	90	0.00	29.969 
22:05	54.2	54.2	54.2	46	33.9	1	5	112	0.00	29.969 
22:10	54.1	54.1	54.1	47	34.3	3	7	112	0.00	29.969 
22:15	53.8	53.8	53.8	47	34.0	2	7	112	0.00	29.972 
22:20	53.5	53.5	53.5	48	34.3	3	10	112	0.00	29.972 
22:25	53.3	53.3	53.3	49	34.6	2	9	90	0.00	29.972 
22:30	53.1	53.1	53.1	49	34.4	1	4	90	0.00	29.982 
22:35	52.8	52.8	52.8	50	34.7	2	5	90	0.00	29.982 
22:40	52.6	52.6	52.6	51	35.0	2	5	90	0.00	29.982 
22:45	52.2	52.2	52.2	53	35.6	4	11	90	0.00	29.999 
22:50	51.3	51.3	51.3	57	36.6	4	8	112	0.00	29.999 
22:55	50.1	50.1	50.1	60	36.8	6	13	90	0.00	29.999 
23:00	49.4	47.0	49.4	60	36.1	6	17	90	0.00	30.008 
23:05	48.8	46.2	48.8	62	36.4	6	11	90	0.00	30.008 
23:10	48.3	45.6	48.3	62	35.9	6	13	90	0.00	30.008 
23:15	47.9	45.2	47.9	63	35.9	6	10	90	0.00	30.011 
23:20	47.6	45.4	47.6	64	36.0	5	11	90	0.00	30.011 
23:25	47.3	45.8	47.3	65	36.1	4	10	90	0.00	30.011 
23:30	47.0	45.4	47.0	65	35.9	4	10	90	0.00	30.016 
23:35	46.7	43.7	46.7	66	36.0	6	12	90	0.00	30.016 
23:40	46.4	44.0	46.4	66	35.7	5	14	90	0.00	30.016 
23:45	46.1	44.4	46.1	67	35.8	4	11	90	0.00	30.019 
23:50	46.0	43.5	46.0	67	35.7	5	12	90	0.00	30.019 
23:55	45.7	45.7	45.7	68	35.8	3	9	90	0.00	30.019 

CoCoRaHS
IN-AL-39
A2 Web Hosting
Creative Commons License
GoDaddy
search engine by freefind advanced

loaded 2018-11-16 23:41:31 • last modified 2010-11-18 10:43:29
Privacy PolicyDisclaimer
• wx.awcolley.com is powered by PmWiki v.2002016 •
• all content (unless otherwise noted) © 2018 A W Colley